Springville, Indiana
Current Conditions -  °F | °C
As of 3:53 PM on Saturday 25 Oct 2014 (Local Time) from KBMG Reporting Station
Clear Clear  
Wind Chill: 76°   Ceiling: Unl
Heat Index: 76°   Visibility: 10mi
Dew Point: 52°   Wind: 7mph
Humidity: 43%   Direction: 300°WNW
Pressure: 29.96"   Gusts: NA
Location:  38.93°N, 86.61°W
Report Text: KBMG 251953Z 30006KT 10SM CLR 24/11 A2996 RMK AO2 SLP142 T02440111
Loading
Personal Weather Stations






























Interactive Weather Map
Tropical Storm Tracking
New forecast layout! Learn more

10-Day Weather Forecast

Advertisements
Track Severe Weather on mobile